Atlanta, GA

11:36 PM EST on January 26, 2015 (GMT -0500)
Heatherwood Sub. | Change Station
CLOSE
Current Station
Personal Weather Station
Location: Riverdale, GA
Elevation: 975 ft
Nearby Weather Stations

Elev 975 ft 33.60 °N, 84.43 °W | Updated 4 seconds ago

Mostly Cloudy
Mostly Cloudy
33.6 °F
Feels Like 34 °F
N
0.0
Wind Variable Wind from South
Gusts 0.0 mph

Today
High -- | Low -- °F
--% Chance of Precip.
Yesterday
High -- | Low -- °F
Precip. -- in
7:37 AM 6:02 PM
Waxing Crescent, 50% visible
Pressure 29.93 in
Visibility 10.0 miles
Clouds Few 7000 ft
Mostly Cloudy 8500 ft
Windchill 34 °F
Dew Point 29 °F
Humidity 84%
Rainfall 0.01 in
Snow Depth Not available.
UV 0.0 out of 12
Pollen 1.90 out of 12
Air Quality Not available.
Flu Activity Not available.
METAR KATL 270352Z 30006KT 10SM FEW070 BKN085 02/M03 A2991 RMK AO2 SLP133 T00171028

More Conditions Fewer Conditions

Pressure 29.93 in
Visibility 10.0 miles
Clouds Few 7000 ft
Mostly Cloudy 8500 ft
Windchill 34 °F
Dew Point 29 °F
Humidity 84%
Rainfall 0.01 in
Snow Depth Not available.
UV 0.0 out of 12
Pollen 1.90 out of 12
Air Quality Not available.
Flu Activity Not available.
METAR KATL 270352Z 30006KT 10SM FEW070 BKN085 02/M03 A2991 RMK AO2 SLP133 T00171028

More Conditions Fewer Conditions

10-Day Weather Forecast

Almanac

Astronomy

Jan. 26, 2015 Rise Set
Actual Time
Civil Twilight
Nautical Twilight
Astronomical Twilight
Moon
Length of Visible Light
Length of Day
Tomorrow will be .
, % of the Moon is Illuminated

Today's Extremes

State Highs State Lows

Community

WunderPhotos

Upload Photos

1,790,527 photos uploaded!

WunderBlogs® & News

Nearby

Air Quality

  Air Quality AQ Index Pollutant
Not available.

Snow Depth

Station Depth Elevation

Earthquake Activity

City Distance Mag. Time & Date
Minimum magnitude displayed is 2.5.

Coastal Water Temperatures

Place Temperature

Nearby Weather Stations